sensor_id;sensor_type;location;lat;lon;timestamp;P1;durP1;ratioP1;P2;durP2;ratioP2
68714;SDS011;55692;53.356;10.030;2024-03-06T00:01:54;26.92;;;13.27;;
68714;SDS011;55692;53.356;10.030;2024-03-06T00:04:20;26.02;;;12.98;;
68714;SDS011;55692;53.356;10.030;2024-03-06T00:06:46;25.00;;;12.45;;
68714;SDS011;55692;53.356;10.030;2024-03-06T00:09:12;24.40;;;12.45;;
68714;SDS011;55692;53.356;10.030;2024-03-06T00:11:38;27.25;;;12.82;;
68714;SDS011;55692;53.356;10.030;2024-03-06T00:14:05;28.42;;;13.02;;
68714;SDS011;55692;53.356;10.030;2024-03-06T00:16:31;26.92;;;12.23;;
68714;SDS011;55692;53.356;10.030;2024-03-06T00:18:57;29.80;;;13.77;;
68714;SDS011;55692;53.356;10.030;2024-03-06T00:21:23;28.63;;;13.82;;
68714;SDS011;55692;53.356;10.030;2024-03-06T00:23:49;29.58;;;13.90;;
68714;SDS011;55692;53.356;10.030;2024-03-06T00:26:15;34.03;;;14.38;;
68714;SDS011;55692;53.356;10.030;2024-03-06T00:28:41;37.95;;;15.50;;
68714;SDS011;55692;53.356;10.030;2024-03-06T00:31:07;28.95;;;14.32;;
68714;SDS011;55692;53.356;10.030;2024-03-06T00:33:33;34.20;;;14.48;;
68714;SDS011;55692;53.356;10.030;2024-03-06T00:35:59;32.67;;;14.90;;
68714;SDS011;55692;53.356;10.030;2024-03-06T00:38:25;31.70;;;14.57;;
68714;SDS011;55692;53.356;10.030;2024-03-06T00:40:51;29.60;;;13.82;;
68714;SDS011;55692;53.356;10.030;2024-03-06T00:43:17;28.67;;;12.55;;
68714;SDS011;55692;53.356;10.030;2024-03-06T00:45:43;24.20;;;12.48;;
68714;SDS011;55692;53.356;10.030;2024-03-06T00:48:09;28.95;;;13.55;;
68714;SDS011;55692;53.356;10.030;2024-03-06T00:50:35;28.30;;;12.98;;
68714;SDS011;55692;53.356;10.030;2024-03-06T00:53:01;28.65;;;13.43;;
68714;SDS011;55692;53.356;10.030;2024-03-06T00:55:29;28.20;;;12.85;;
68714;SDS011;55692;53.356;10.030;2024-03-06T00:57:55;28.13;;;12.98;;
68714;SDS011;55692;53.356;10.030;2024-03-06T01:00:21;28.40;;;13.57;;
68714;SDS011;55692;53.356;10.030;2024-03-06T01:02:48;28.58;;;12.77;;
68714;SDS011;55692;53.356;10.030;2024-03-06T01:05:14;25.58;;;13.05;;
68714;SDS011;55692;53.356;10.030;2024-03-06T01:07:40;28.77;;;13.27;;
68714;SDS011;55692;53.356;10.030;2024-03-06T01:10:06;27.23;;;12.82;;
68714;SDS011;55692;53.356;10.030;2024-03-06T01:12:33;27.58;;;13.13;;
68714;SDS011;55692;53.356;10.030;2024-03-06T01:14:59;26.52;;;12.50;;
68714;SDS011;55692;53.356;10.030;2024-03-06T01:17:25;26.92;;;12.73;;
68714;SDS011;55692;53.356;10.030;2024-03-06T01:19:51;23.92;;;11.85;;
68714;SDS011;55692;53.356;10.030;2024-03-06T01:22:17;21.33;;;10.80;;
68714;SDS011;55692;53.356;10.030;2024-03-06T01:24:44;28.42;;;13.38;;
68714;SDS011;55692;53.356;10.030;2024-03-06T01:27:13;29.50;;;12.02;;
68714;SDS011;55692;53.356;10.030;2024-03-06T01:29:39;26.13;;;12.38;;
68714;SDS011;55692;53.356;10.030;2024-03-06T01:32:05;25.38;;;11.95;;
68714;SDS011;55692;53.356;10.030;2024-03-06T01:34:31;24.40;;;11.65;;
68714;SDS011;55692;53.356;10.030;2024-03-06T01:36:57;25.15;;;12.07;;
68714;SDS011;55692;53.356;10.030;2024-03-06T01:39:23;28.55;;;12.77;;
68714;SDS011;55692;53.356;10.030;2024-03-06T01:41:50;27.60;;;12.95;;
68714;SDS011;55692;53.356;10.030;2024-03-06T01:44:17;26.05;;;12.13;;
68714;SDS011;55692;53.356;10.030;2024-03-06T01:46:43;25.38;;;11.10;;
68714;SDS011;55692;53.356;10.030;2024-03-06T01:49:10;23.65;;;11.15;;
68714;SDS011;55692;53.356;10.030;2024-03-06T01:51:37;29.98;;;12.00;;
68714;SDS011;55692;53.356;10.030;2024-03-06T01:54:03;25.83;;;12.57;;
68714;SDS011;55692;53.356;10.030;2024-03-06T01:56:30;27.77;;;12.13;;
68714;SDS011;55692;53.356;10.030;2024-03-06T01:58:57;26.13;;;12.50;;
68714;SDS011;55692;53.356;10.030;2024-03-06T02:01:24;25.33;;;12.13;;
68714;SDS011;55692;53.356;10.030;2024-03-06T02:03:50;26.48;;;12.25;;
68714;SDS011;55692;53.356;10.030;2024-03-06T02:06:16;27.10;;;11.40;;
68714;SDS011;55692;53.356;10.030;2024-03-06T02:08:45;25.88;;;11.75;;
68714;SDS011;55692;53.356;10.030;2024-03-06T02:11:11;28.00;;;12.80;;
68714;SDS011;55692;53.356;10.030;2024-03-06T02:13:38;29.77;;;13.13;;
68714;SDS011;55692;53.356;10.030;2024-03-06T02:16:04;30.23;;;12.75;;
68714;SDS011;55692;53.356;10.030;2024-03-06T02:18:30;24.35;;;12.27;;
68714;SDS011;55692;53.356;10.030;2024-03-06T02:20:56;28.45;;;12.77;;
68714;SDS011;55692;53.356;10.030;2024-03-06T02:23:22;20.55;;;9.65;;
68714;SDS011;55692;53.356;10.030;2024-03-06T02:25:49;26.30;;;12.00;;
68714;SDS011;55692;53.356;10.030;2024-03-06T02:28:15;25.20;;;12.23;;
68714;SDS011;55692;53.356;10.030;2024-03-06T02:30:44;26.10;;;11.80;;
68714;SDS011;55692;53.356;10.030;2024-03-06T02:33:10;23.75;;;11.15;;
68714;SDS011;55692;53.356;10.030;2024-03-06T02:35:36;23.13;;;11.45;;
68714;SDS011;55692;53.356;10.030;2024-03-06T02:38:03;27.90;;;12.95;;
68714;SDS011;55692;53.356;10.030;2024-03-06T02:40:30;29.60;;;11.30;;
68714;SDS011;55692;53.356;10.030;2024-03-06T02:42:56;28.13;;;12.60;;
68714;SDS011;55692;53.356;10.030;2024-03-06T02:45:22;26.17;;;11.90;;
68714;SDS011;55692;53.356;10.030;2024-03-06T02:47:48;28.13;;;13.50;;
68714;SDS011;55692;53.356;10.030;2024-03-06T02:50:14;26.15;;;12.85;;
68714;SDS011;55692;53.356;10.030;2024-03-06T02:52:40;25.98;;;12.40;;
68714;SDS011;55692;53.356;10.030;2024-03-06T02:55:07;26.75;;;11.93;;
68714;SDS011;55692;53.356;10.030;2024-03-06T02:57:33;24.45;;;12.10;;
68714;SDS011;55692;53.356;10.030;2024-03-06T02:59:59;27.65;;;11.38;;
68714;SDS011;55692;53.356;10.030;2024-03-06T03:02:25;27.60;;;12.27;;
68714;SDS011;55692;53.356;10.030;2024-03-06T03:04:51;31.13;;;12.98;;
68714;SDS011;55692;53.356;10.030;2024-03-06T03:07:20;27.17;;;12.55;;
68714;SDS011;55692;53.356;10.030;2024-03-06T03:09:46;27.13;;;12.82;;
68714;SDS011;55692;53.356;10.030;2024-03-06T03:12:13;32.22;;;13.07;;
68714;SDS011;55692;53.356;10.030;2024-03-06T03:14:42;26.70;;;11.98;;
68714;SDS011;55692;53.356;10.030;2024-03-06T03:17:08;30.60;;;12.07;;
68714;SDS011;55692;53.356;10.030;2024-03-06T03:19:34;29.27;;;12.43;;
68714;SDS011;55692;53.356;10.030;2024-03-06T03:22:00;28.98;;;13.32;;
68714;SDS011;55692;53.356;10.030;2024-03-06T03:24:29;28.30;;;12.35;;
68714;SDS011;55692;53.356;10.030;2024-03-06T03:26:55;28.77;;;12.45;;
68714;SDS011;55692;53.356;10.030;2024-03-06T03:29:21;29.25;;;11.82;;
68714;SDS011;55692;53.356;10.030;2024-03-06T03:31:47;26.92;;;12.25;;
68714;SDS011;55692;53.356;10.030;2024-03-06T03:34:14;27.63;;;12.80;;
68714;SDS011;55692;53.356;10.030;2024-03-06T03:36:40;24.60;;;12.60;;
68714;SDS011;55692;53.356;10.030;2024-03-06T03:39:06;29.95;;;13.15;;
68714;SDS011;55692;53.356;10.030;2024-03-06T03:41:49;29.88;;;13.23;;
68714;SDS011;55692;53.356;10.030;2024-03-06T03:44:18;24.05;;;12.20;;
68714;SDS011;55692;53.356;10.030;2024-03-06T03:46:44;21.13;;;10.52;;
68714;SDS011;55692;53.356;10.030;2024-03-06T03:49:11;31.63;;;13.38;;
68714;SDS011;55692;53.356;10.030;2024-03-06T03:51:37;28.85;;;12.73;;
68714;SDS011;55692;53.356;10.030;2024-03-06T03:54:03;30.17;;;11.98;;
68714;SDS011;55692;53.356;10.030;2024-03-06T03:56:30;29.63;;;12.32;;
68714;SDS011;55692;53.356;10.030;2024-03-06T03:58:56;25.35;;;11.75;;
68714;SDS011;55692;53.356;10.030;2024-03-06T04:01:23;29.15;;;13.18;;
68714;SDS011;55692;53.356;10.030;2024-03-06T04:03:49;31.15;;;12.80;;
68714;SDS011;55692;53.356;10.030;2024-03-06T04:06:15;29.25;;;12.75;;
68714;SDS011;55692;53.356;10.030;2024-03-06T04:08:41;30.92;;;13.43;;
68714;SDS011;55692;53.356;10.030;2024-03-06T04:11:07;24.83;;;12.02;;
68714;SDS011;55692;53.356;10.030;2024-03-06T04:13:37;29.13;;;12.13;;
68714;SDS011;55692;53.356;10.030;2024-03-06T04:16:03;27.70;;;11.43;;
68714;SDS011;55692;53.356;10.030;2024-03-06T04:18:30;33.05;;;12.57;;
68714;SDS011;55692;53.356;10.030;2024-03-06T04:21:01;30.90;;;12.60;;
68714;SDS011;55692;53.356;10.030;2024-03-06T04:23:29;28.83;;;12.82;;
68714;SDS011;55692;53.356;10.030;2024-03-06T04:25:55;32.90;;;12.82;;
68714;SDS011;55692;53.356;10.030;2024-03-06T04:28:21;32.33;;;12.82;;
68714;SDS011;55692;53.356;10.030;2024-03-06T04:30:47;28.70;;;12.88;;
68714;SDS011;55692;53.356;10.030;2024-03-06T04:33:13;24.42;;;11.98;;
68714;SDS011;55692;53.356;10.030;2024-03-06T04:35:40;25.23;;;12.40;;
68714;SDS011;55692;53.356;10.030;2024-03-06T04:38:06;26.63;;;12.35;;
68714;SDS011;55692;53.356;10.030;2024-03-06T04:40:33;28.50;;;12.27;;
68714;SDS011;55692;53.356;10.030;2024-03-06T04:42:59;27.55;;;11.68;;
68714;SDS011;55692;53.356;10.030;2024-03-06T04:45:25;26.70;;;12.50;;
68714;SDS011;55692;53.356;10.030;2024-03-06T04:47:51;31.88;;;12.70;;
68714;SDS011;55692;53.356;10.030;2024-03-06T04:50:17;35.75;;;13.10;;
68714;SDS011;55692;53.356;10.030;2024-03-06T04:52:43;25.33;;;12.07;;
68714;SDS011;55692;53.356;10.030;2024-03-06T04:55:10;29.20;;;13.63;;
68714;SDS011;55692;53.356;10.030;2024-03-06T04:57:37;28.65;;;12.23;;
68714;SDS011;55692;53.356;10.030;2024-03-06T05:00:03;27.98;;;12.07;;
68714;SDS011;55692;53.356;10.030;2024-03-06T05:02:35;27.48;;;12.35;;
68714;SDS011;55692;53.356;10.030;2024-03-06T05:05:02;30.45;;;13.13;;
68714;SDS011;55692;53.356;10.030;2024-03-06T05:07:28;32.60;;;12.75;;
68714;SDS011;55692;53.356;10.030;2024-03-06T05:09:55;34.03;;;15.02;;
68714;SDS011;55692;53.356;10.030;2024-03-06T05:12:22;31.58;;;14.27;;
68714;SDS011;55692;53.356;10.030;2024-03-06T05:14:48;34.42;;;14.60;;
68714;SDS011;55692;53.356;10.030;2024-03-06T05:17:14;33.95;;;14.70;;
68714;SDS011;55692;53.356;10.030;2024-03-06T05:19:40;35.30;;;14.95;;
68714;SDS011;55692;53.356;10.030;2024-03-06T05:22:06;29.58;;;13.02;;
68714;SDS011;55692;53.356;10.030;2024-03-06T05:24:32;35.53;;;14.30;;
68714;SDS011;55692;53.356;10.030;2024-03-06T05:26:58;33.10;;;14.32;;
68714;SDS011;55692;53.356;10.030;2024-03-06T05:29:24;28.90;;;13.27;;
68714;SDS011;55692;53.356;10.030;2024-03-06T05:31:50;37.22;;;14.25;;
68714;SDS011;55692;53.356;10.030;2024-03-06T05:34:16;40.38;;;14.80;;
68714;SDS011;55692;53.356;10.030;2024-03-06T05:36:42;28.95;;;13.40;;
68714;SDS011;55692;53.356;10.030;2024-03-06T05:39:08;34.40;;;13.93;;
68714;SDS011;55692;53.356;10.030;2024-03-06T05:41:37;33.63;;;14.50;;
68714;SDS011;55692;53.356;10.030;2024-03-06T05:44:04;38.45;;;13.13;;
68714;SDS011;55692;53.356;10.030;2024-03-06T05:46:30;35.45;;;14.38;;
68714;SDS011;55692;53.356;10.030;2024-03-06T05:48:55;29.38;;;14.27;;
68714;SDS011;55692;53.356;10.030;2024-03-06T05:51:21;26.38;;;13.52;;
68714;SDS011;55692;53.356;10.030;2024-03-06T05:53:47;35.72;;;13.90;;
68714;SDS011;55692;53.356;10.030;2024-03-06T05:56:13;30.13;;;14.15;;
68714;SDS011;55692;53.356;10.030;2024-03-06T05:58:39;32.88;;;13.63;;
68714;SDS011;55692;53.356;10.030;2024-03-06T06:01:05;30.60;;;14.07;;
68714;SDS011;55692;53.356;10.030;2024-03-06T06:03:31;33.85;;;13.65;;
68714;SDS011;55692;53.356;10.030;2024-03-06T06:05:57;33.50;;;14.48;;
68714;SDS011;55692;53.356;10.030;2024-03-06T06:08:24;36.03;;;13.32;;
68714;SDS011;55692;53.356;10.030;2024-03-06T06:10:50;29.25;;;12.52;;
68714;SDS011;55692;53.356;10.030;2024-03-06T06:13:20;31.63;;;14.23;;
68714;SDS011;55692;53.356;10.030;2024-03-06T06:15:46;38.28;;;14.55;;
68714;SDS011;55692;53.356;10.030;2024-03-06T06:18:12;30.88;;;13.05;;
68714;SDS011;55692;53.356;10.030;2024-03-06T06:20:40;28.98;;;12.77;;
68714;SDS011;55692;53.356;10.030;2024-03-06T06:23:06;28.90;;;12.55;;
68714;SDS011;55692;53.356;10.030;2024-03-06T06:25:32;29.73;;;13.82;;
68714;SDS011;55692;53.356;10.030;2024-03-06T06:27:58;29.67;;;13.23;;
68714;SDS011;55692;53.356;10.030;2024-03-06T06:30:24;34.78;;;14.20;;
68714;SDS011;55692;53.356;10.030;2024-03-06T06:32:50;34.58;;;14.57;;
68714;SDS011;55692;53.356;10.030;2024-03-06T06:35:16;38.67;;;15.48;;
68714;SDS011;55692;53.356;10.030;2024-03-06T06:37:42;36.22;;;15.90;;
68714;SDS011;55692;53.356;10.030;2024-03-06T06:40:08;36.55;;;14.85;;
68714;SDS011;55692;53.356;10.030;2024-03-06T06:42:35;33.13;;;14.55;;
68714;SDS011;55692;53.356;10.030;2024-03-06T06:45:01;31.48;;;14.80;;
68714;SDS011;55692;53.356;10.030;2024-03-06T06:47:27;36.90;;;15.68;;
68714;SDS011;55692;53.356;10.030;2024-03-06T06:49:54;29.83;;;14.43;;
68714;SDS011;55692;53.356;10.030;2024-03-06T06:52:20;35.10;;;15.55;;
68714;SDS011;55692;53.356;10.030;2024-03-06T06:54:45;36.63;;;15.35;;
68714;SDS011;55692;53.356;10.030;2024-03-06T06:57:11;43.10;;;16.42;;
68714;SDS011;55692;53.356;10.030;2024-03-06T06:59:37;34.90;;;14.98;;
68714;SDS011;55692;53.356;10.030;2024-03-06T07:02:04;37.10;;;15.13;;
68714;SDS011;55692;53.356;10.030;2024-03-06T07:04:31;36.58;;;15.50;;
68714;SDS011;55692;53.356;10.030;2024-03-06T07:06:57;44.60;;;16.30;;
68714;SDS011;55692;53.356;10.030;2024-03-06T07:09:23;41.78;;;16.17;;
68714;SDS011;55692;53.356;10.030;2024-03-06T07:11:50;39.10;;;16.75;;
68714;SDS011;55692;53.356;10.030;2024-03-06T07:14:16;40.60;;;17.08;;
68714;SDS011;55692;53.356;10.030;2024-03-06T07:16:42;37.10;;;16.92;;
68714;SDS011;55692;53.356;10.030;2024-03-06T07:19:08;38.80;;;16.88;;
68714;SDS011;55692;53.356;10.030;2024-03-06T07:21:34;37.53;;;16.20;;
68714;SDS011;55692;53.356;10.030;2024-03-06T07:24:01;38.30;;;17.45;;
68714;SDS011;55692;53.356;10.030;2024-03-06T07:26:27;37.42;;;16.65;;
68714;SDS011;55692;53.356;10.030;2024-03-06T07:28:55;40.58;;;17.60;;
68714;SDS011;55692;53.356;10.030;2024-03-06T07:31:21;35.05;;;15.63;;
68714;SDS011;55692;53.356;10.030;2024-03-06T07:33:47;32.63;;;15.90;;
68714;SDS011;55692;53.356;10.030;2024-03-06T07:36:13;32.55;;;15.20;;
68714;SDS011;55692;53.356;10.030;2024-03-06T07:38:39;30.92;;;15.15;;
68714;SDS011;55692;53.356;10.030;2024-03-06T07:41:06;29.35;;;15.63;;
68714;SDS011;55692;53.356;10.030;2024-03-06T07:43:32;31.40;;;14.98;;
68714;SDS011;55692;53.356;10.030;2024-03-06T07:45:58;28.58;;;14.80;;
68714;SDS011;55692;53.356;10.030;2024-03-06T07:48:24;26.75;;;14.85;;
68714;SDS011;55692;53.356;10.030;2024-03-06T07:50:51;23.77;;;13.30;;
68714;SDS011;55692;53.356;10.030;2024-03-06T07:53:17;20.85;;;11.48;;
68714;SDS011;55692;53.356;10.030;2024-03-06T07:55:42;22.67;;;11.07;;
68714;SDS011;55692;53.356;10.030;2024-03-06T07:58:09;20.05;;;10.70;;
68714;SDS011;55692;53.356;10.030;2024-03-06T08:00:35;19.80;;;10.05;;
68714;SDS011;55692;53.356;10.030;2024-03-06T08:03:02;15.07;;;9.50;;
68714;SDS011;55692;53.356;10.030;2024-03-06T08:05:28;15.93;;;9.77;;
68714;SDS011;55692;53.356;10.030;2024-03-06T08:07:54;14.25;;;7.55;;
68714;SDS011;55692;53.356;10.030;2024-03-06T08:10:20;13.27;;;7.30;;
68714;SDS011;55692;53.356;10.030;2024-03-06T08:12:46;9.88;;;6.57;;
68714;SDS011;55692;53.356;10.030;2024-03-06T08:15:15;14.32;;;7.38;;
68714;SDS011;55692;53.356;10.030;2024-03-06T08:17:42;11.82;;;7.60;;
68714;SDS011;55692;53.356;10.030;2024-03-06T08:20:08;11.13;;;5.60;;
68714;SDS011;55692;53.356;10.030;2024-03-06T08:22:36;10.40;;;6.65;;
68714;SDS011;55692;53.356;10.030;2024-03-06T08:25:10;18.65;;;7.38;;
68714;SDS011;55692;53.356;10.030;2024-03-06T08:27:38;12.30;;;7.25;;
68714;SDS011;55692;53.356;10.030;2024-03-06T08:30:05;11.50;;;7.22;;
68714;SDS011;55692;53.356;10.030;2024-03-06T08:32:32;11.27;;;7.30;;
68714;SDS011;55692;53.356;10.030;2024-03-06T08:35:00;15.07;;;7.88;;
68714;SDS011;55692;53.356;10.030;2024-03-06T08:37:26;12.77;;;8.15;;
68714;SDS011;55692;53.356;10.030;2024-03-06T08:39:52;13.10;;;8.10;;
68714;SDS011;55692;53.356;10.030;2024-03-06T08:42:18;15.35;;;8.52;;
68714;SDS011;55692;53.356;10.030;2024-03-06T08:44:44;14.07;;;8.75;;
68714;SDS011;55692;53.356;10.030;2024-03-06T08:47:11;13.75;;;7.82;;
68714;SDS011;55692;53.356;10.030;2024-03-06T08:49:38;13.20;;;8.27;;
68714;SDS011;55692;53.356;10.030;2024-03-06T08:52:04;15.63;;;9.60;;
68714;SDS011;55692;53.356;10.030;2024-03-06T08:54:30;18.58;;;9.40;;
68714;SDS011;55692;53.356;10.030;2024-03-06T08:56:56;17.45;;;8.95;;
68714;SDS011;55692;53.356;10.030;2024-03-06T08:59:23;14.95;;;8.45;;
68714;SDS011;55692;53.356;10.030;2024-03-06T09:01:51;15.00;;;8.75;;
68714;SDS011;55692;53.356;10.030;2024-03-06T09:04:17;17.00;;;9.77;;
68714;SDS011;55692;53.356;10.030;2024-03-06T09:06:43;15.70;;;8.98;;
68714;SDS011;55692;53.356;10.030;2024-03-06T09:09:09;16.17;;;9.23;;
68714;SDS011;55692;53.356;10.030;2024-03-06T09:11:35;17.30;;;9.30;;
68714;SDS011;55692;53.356;10.030;2024-03-06T09:14:01;15.40;;;9.20;;
68714;SDS011;55692;53.356;10.030;2024-03-06T09:16:29;18.17;;;9.40;;
68714;SDS011;55692;53.356;10.030;2024-03-06T09:18:55;16.40;;;9.20;;
68714;SDS011;55692;53.356;10.030;2024-03-06T09:21:21;20.75;;;9.40;;
68714;SDS011;55692;53.356;10.030;2024-03-06T09:23:47;16.38;;;9.55;;
68714;SDS011;55692;53.356;10.030;2024-03-06T09:26:16;17.40;;;9.90;;
68714;SDS011;55692;53.356;10.030;2024-03-06T09:28:42;17.20;;;8.95;;
68714;SDS011;55692;53.356;10.030;2024-03-06T09:31:08;15.95;;;9.32;;
68714;SDS011;55692;53.356;10.030;2024-03-06T09:33:34;19.33;;;9.82;;
68714;SDS011;55692;53.356;10.030;2024-03-06T09:36:00;17.02;;;9.88;;
68714;SDS011;55692;53.356;10.030;2024-03-06T09:38:26;15.43;;;8.70;;
68714;SDS011;55692;53.356;10.030;2024-03-06T09:40:55;18.23;;;10.18;;
68714;SDS011;55692;53.356;10.030;2024-03-06T09:43:21;19.60;;;10.13;;
68714;SDS011;55692;53.356;10.030;2024-03-06T09:45:49;15.13;;;9.45;;
68714;SDS011;55692;53.356;10.030;2024-03-06T09:48:16;17.38;;;9.32;;
68714;SDS011;55692;53.356;10.030;2024-03-06T09:50:45;18.15;;;9.40;;
68714;SDS011;55692;53.356;10.030;2024-03-06T09:53:12;17.30;;;8.82;;
68714;SDS011;55692;53.356;10.030;2024-03-06T09:55:41;17.70;;;8.98;;
68714;SDS011;55692;53.356;10.030;2024-03-06T09:58:07;18.48;;;9.60;;
68714;SDS011;55692;53.356;10.030;2024-03-06T10:00:37;14.18;;;8.63;;
68714;SDS011;55692;53.356;10.030;2024-03-06T10:03:03;13.73;;;8.77;;
68714;SDS011;55692;53.356;10.030;2024-03-06T10:05:33;16.48;;;9.13;;
68714;SDS011;55692;53.356;10.030;2024-03-06T10:08:03;14.27;;;8.77;;
68714;SDS011;55692;53.356;10.030;2024-03-06T10:10:29;16.77;;;8.73;;
68714;SDS011;55692;53.356;10.030;2024-03-06T10:12:56;19.67;;;9.45;;
68714;SDS011;55692;53.356;10.030;2024-03-06T10:15:22;18.90;;;9.40;;
68714;SDS011;55692;53.356;10.030;2024-03-06T10:17:50;14.88;;;9.00;;
68714;SDS011;55692;53.356;10.030;2024-03-06T10:20:21;16.13;;;10.00;;
68714;SDS011;55692;53.356;10.030;2024-03-06T10:22:48;15.75;;;9.25;;
68714;SDS011;55692;53.356;10.030;2024-03-06T10:25:14;19.13;;;9.25;;
68714;SDS011;55692;53.356;10.030;2024-03-06T10:27:41;17.73;;;9.93;;
68714;SDS011;55692;53.356;10.030;2024-03-06T10:30:07;17.98;;;9.57;;
68714;SDS011;55692;53.356;10.030;2024-03-06T10:32:36;16.05;;;9.48;;
68714;SDS011;55692;53.356;10.030;2024-03-06T10:35:02;18.38;;;9.63;;
68714;SDS011;55692;53.356;10.030;2024-03-06T10:37:31;14.93;;;8.55;;
68714;SDS011;55692;53.356;10.030;2024-03-06T10:39:59;19.75;;;11.00;;
68714;SDS011;55692;53.356;10.030;2024-03-06T10:42:35;16.92;;;9.60;;
68714;SDS011;55692;53.356;10.030;2024-03-06T10:45:02;18.20;;;9.45;;
68714;SDS011;55692;53.356;10.030;2024-03-06T10:47:29;16.67;;;9.40;;
68714;SDS011;55692;53.356;10.030;2024-03-06T10:49:55;18.35;;;9.88;;
68714;SDS011;55692;53.356;10.030;2024-03-06T10:52:25;19.75;;;10.02;;
68714;SDS011;55692;53.356;10.030;2024-03-06T10:54:53;19.48;;;9.73;;
68714;SDS011;55692;53.356;10.030;2024-03-06T10:57:21;18.95;;;9.27;;
68714;SDS011;55692;53.356;10.030;2024-03-06T10:59:47;16.98;;;10.07;;
68714;SDS011;55692;53.356;10.030;2024-03-06T11:02:14;16.50;;;9.68;;
68714;SDS011;55692;53.356;10.030;2024-03-06T11:04:41;17.67;;;9.68;;
68714;SDS011;55692;53.356;10.030;2024-03-06T11:07:07;17.77;;;9.05;;
68714;SDS011;55692;53.356;10.030;2024-03-06T11:09:34;18.77;;;9.80;;
68714;SDS011;55692;53.356;10.030;2024-03-06T11:12:00;17.35;;;9.90;;
68714;SDS011;55692;53.356;10.030;2024-03-06T11:14:32;19.40;;;10.75;;
68714;SDS011;55692;53.356;10.030;2024-03-06T11:19:25;16.77;;;10.07;;
68714;SDS011;55692;53.356;10.030;2024-03-06T11:21:51;18.05;;;10.40;;
68714;SDS011;55692;53.356;10.030;2024-03-06T11:24:18;17.83;;;10.07;;
68714;SDS011;55692;53.356;10.030;2024-03-06T11:26:54;15.07;;;9.32;;
68714;SDS011;55692;53.356;10.030;2024-03-06T11:29:22;19.80;;;11.05;;
68714;SDS011;55692;53.356;10.030;2024-03-06T11:32:23;17.25;;;9.82;;
68714;SDS011;55692;53.356;10.030;2024-03-06T11:34:42;18.55;;;9.63;;
68714;SDS011;55692;53.356;10.030;2024-03-06T11:37:08;16.27;;;9.90;;
68714;SDS011;55692;53.356;10.030;2024-03-06T11:39:34;18.10;;;9.20;;
68714;SDS011;55692;53.356;10.030;2024-03-06T11:42:01;19.05;;;9.82;;
68714;SDS011;55692;53.356;10.030;2024-03-06T11:44:28;18.90;;;10.23;;
68714;SDS011;55692;53.356;10.030;2024-03-06T11:49:21;15.32;;;9.18;;
68714;SDS011;55692;53.356;10.030;2024-03-06T11:51:49;17.45;;;9.80;;
68714;SDS011;55692;53.356;10.030;2024-03-06T11:54:16;16.40;;;9.30;;
68714;SDS011;55692;53.356;10.030;2024-03-06T11:56:48;16.33;;;9.73;;
68714;SDS011;55692;53.356;10.030;2024-03-06T11:59:15;17.08;;;10.15;;
68714;SDS011;55692;53.356;10.030;2024-03-06T12:01:41;16.10;;;9.95;;
68714;SDS011;55692;53.356;10.030;2024-03-06T12:04:07;18.05;;;8.80;;
68714;SDS011;55692;53.356;10.030;2024-03-06T12:06:35;19.30;;;10.25;;
68714;SDS011;55692;53.356;10.030;2024-03-06T12:09:01;26.13;;;10.70;;
68714;SDS011;55692;53.356;10.030;2024-03-06T12:11:28;15.57;;;8.95;;
68714;SDS011;55692;53.356;10.030;2024-03-06T12:13:56;13.93;;;9.10;;
68714;SDS011;55692;53.356;10.030;2024-03-06T12:16:22;21.20;;;9.55;;
68714;SDS011;55692;53.356;10.030;2024-03-06T12:19:06;17.40;;;9.60;;
68714;SDS011;55692;53.356;10.030;2024-03-06T12:21:32;14.88;;;9.07;;
68714;SDS011;55692;53.356;10.030;2024-03-06T12:24:05;16.83;;;9.82;;
68714;SDS011;55692;53.356;10.030;2024-03-06T12:26:32;20.58;;;10.30;;
68714;SDS011;55692;53.356;10.030;2024-03-06T12:29:04;17.50;;;9.63;;
68714;SDS011;55692;53.356;10.030;2024-03-06T12:31:31;22.10;;;9.65;;
68714;SDS011;55692;53.356;10.030;2024-03-06T12:33:57;16.15;;;9.52;;
68714;SDS011;55692;53.356;10.030;2024-03-06T12:36:24;15.50;;;9.02;;
68714;SDS011;55692;53.356;10.030;2024-03-06T12:38:54;16.65;;;9.07;;
68714;SDS011;55692;53.356;10.030;2024-03-06T12:41:20;15.30;;;9.35;;
68714;SDS011;55692;53.356;10.030;2024-03-06T12:43:46;19.10;;;9.10;;
68714;SDS011;55692;53.356;10.030;2024-03-06T12:46:12;15.95;;;9.30;;
68714;SDS011;55692;53.356;10.030;2024-03-06T12:48:38;14.77;;;9.25;;
68714;SDS011;55692;53.356;10.030;2024-03-06T12:51:04;16.00;;;9.30;;
68714;SDS011;55692;53.356;10.030;2024-03-06T12:53:30;14.30;;;8.35;;
68714;SDS011;55692;53.356;10.030;2024-03-06T12:55:58;14.43;;;8.77;;
68714;SDS011;55692;53.356;10.030;2024-03-06T12:58:24;15.88;;;7.97;;
68714;SDS011;55692;53.356;10.030;2024-03-06T13:00:50;17.63;;;9.32;;
68714;SDS011;55692;53.356;10.030;2024-03-06T13:03:17;16.42;;;8.75;;
68714;SDS011;55692;53.356;10.030;2024-03-06T13:05:43;16.42;;;9.30;;
68714;SDS011;55692;53.356;10.030;2024-03-06T13:08:11;14.38;;;7.97;;
68714;SDS011;55692;53.356;10.030;2024-03-06T13:10:40;13.88;;;8.65;;
68714;SDS011;55692;53.356;10.030;2024-03-06T13:13:07;16.55;;;8.35;;
68714;SDS011;55692;53.356;10.030;2024-03-06T13:15:33;14.18;;;8.68;;
68714;SDS011;55692;53.356;10.030;2024-03-06T13:17:59;16.60;;;9.35;;
68714;SDS011;55692;53.356;10.030;2024-03-06T13:20:28;13.55;;;9.00;;
68714;SDS011;55692;53.356;10.030;2024-03-06T13:22:54;14.57;;;8.75;;
68714;SDS011;55692;53.356;10.030;2024-03-06T13:25:20;16.23;;;9.38;;
68714;SDS011;55692;53.356;10.030;2024-03-06T13:27:46;18.33;;;9.45;;
68714;SDS011;55692;53.356;10.030;2024-03-06T13:30:12;14.82;;;8.27;;
68714;SDS011;55692;53.356;10.030;2024-03-06T13:32:38;15.00;;;8.90;;
68714;SDS011;55692;53.356;10.030;2024-03-06T13:35:05;14.60;;;8.48;;
68714;SDS011;55692;53.356;10.030;2024-03-06T13:37:31;14.90;;;8.23;;
68714;SDS011;55692;53.356;10.030;2024-03-06T13:39:59;13.85;;;8.73;;
68714;SDS011;55692;53.356;10.030;2024-03-06T13:42:26;17.10;;;9.38;;
68714;SDS011;55692;53.356;10.030;2024-03-06T13:44:52;17.23;;;9.20;;
68714;SDS011;55692;53.356;10.030;2024-03-06T13:47:19;13.30;;;8.85;;
68714;SDS011;55692;53.356;10.030;2024-03-06T13:49:45;15.68;;;8.63;;
68714;SDS011;55692;53.356;10.030;2024-03-06T13:52:11;12.85;;;7.88;;
68714;SDS011;55692;53.356;10.030;2024-03-06T13:54:38;10.13;;;6.60;;
68714;SDS011;55692;53.356;10.030;2024-03-06T13:57:06;10.32;;;6.78;;
68714;SDS011;55692;53.356;10.030;2024-03-06T13:59:32;10.55;;;7.25;;
68714;SDS011;55692;53.356;10.030;2024-03-06T14:01:59;12.18;;;6.72;;
68714;SDS011;55692;53.356;10.030;2024-03-06T14:04:29;10.95;;;7.25;;
68714;SDS011;55692;53.356;10.030;2024-03-06T14:06:55;10.45;;;6.78;;
68714;SDS011;55692;53.356;10.030;2024-03-06T14:09:25;11.98;;;6.88;;
68714;SDS011;55692;53.356;10.030;2024-03-06T14:11:51;11.20;;;7.18;;
68714;SDS011;55692;53.356;10.030;2024-03-06T14:14:18;13.00;;;6.95;;
68714;SDS011;55692;53.356;10.030;2024-03-06T14:16:44;14.48;;;7.20;;